sensor_id;sensor_type;location;lat;lon;timestamp;pressure;altitude;pressure_sealevel;temperature;humidity
20612;BME280;10465;42.686;23.364;2023-02-03T00:01:11;95173.19;;;5.58;61.13
20612;BME280;10465;42.686;23.364;2023-02-03T00:03:37;95186.34;;;5.63;61.56
20612;BME280;10465;42.686;23.364;2023-02-03T00:06:02;95181.88;;;5.64;61.52
20612;BME280;10465;42.686;23.364;2023-02-03T00:08:29;95198.69;;;5.68;61.97
20612;BME280;10465;42.686;23.364;2023-02-03T00:10:55;95183.97;;;5.57;62.49
20612;BME280;10465;42.686;23.364;2023-02-03T00:13:21;95172.19;;;5.44;62.83
20612;BME280;10465;42.686;23.364;2023-02-03T00:15:47;95184.53;;;5.43;62.90
20612;BME280;10465;42.686;23.364;2023-02-03T00:18:12;95209.97;;;5.53;63.72
20612;BME280;10465;42.686;23.364;2023-02-03T00:20:38;95205.00;;;5.52;64.56
20612;BME280;10465;42.686;23.364;2023-02-03T00:23:08;95206.03;;;5.56;64.53
20612;BME280;10465;42.686;23.364;2023-02-03T00:25:33;95201.59;;;5.51;65.31
20612;BME280;10465;42.686;23.364;2023-02-03T00:27:59;95196.59;;;5.50;65.56
20612;BME280;10465;42.686;23.364;2023-02-03T00:30:25;95190.28;;;5.25;65.85
20612;BME280;10465;42.686;23.364;2023-02-03T00:32:51;95191.88;;;5.21;66.68
20612;BME280;10465;42.686;23.364;2023-02-03T00:35:16;95185.59;;;5.07;66.89
20612;BME280;10465;42.686;23.364;2023-02-03T00:37:42;95217.09;;;5.27;67.22
20612;BME280;10465;42.686;23.364;2023-02-03T00:40:08;95227.59;;;5.27;67.01
20612;BME280;10465;42.686;23.364;2023-02-03T00:42:34;95216.00;;;5.13;67.84
20612;BME280;10465;42.686;23.364;2023-02-03T00:45:00;95229.16;;;5.23;68.08
20612;BME280;10465;42.686;23.364;2023-02-03T00:47:25;95226.22;;;5.14;68.75
20612;BME280;10465;42.686;23.364;2023-02-03T00:49:51;95222.56;;;5.10;69.06
20612;BME280;10465;42.686;23.364;2023-02-03T00:52:16;95238.59;;;5.24;68.62
20612;BME280;10465;42.686;23.364;2023-02-03T00:54:42;95237.00;;;5.18;69.63
20612;BME280;10465;42.686;23.364;2023-02-03T00:57:07;95198.16;;;4.94;70.50
20612;BME280;10465;42.686;23.364;2023-02-03T00:59:33;95240.94;;;5.15;70.07
20612;BME280;10465;42.686;23.364;2023-02-03T01:01:58;95244.88;;;5.18;69.81
20612;BME280;10465;42.686;23.364;2023-02-03T01:04:24;95219.94;;;5.05;70.27
20612;BME280;10465;42.686;23.364;2023-02-03T01:06:49;95240.41;;;5.18;70.24
20612;BME280;10465;42.686;23.364;2023-02-03T01:09:15;95249.88;;;5.19;70.33
20612;BME280;10465;42.686;23.364;2023-02-03T01:11:40;95255.38;;;5.18;70.09
20612;BME280;10465;42.686;23.364;2023-02-03T01:14:06;95240.94;;;5.05;70.82
20612;BME280;10465;42.686;23.364;2023-02-03T01:16:32;95187.38;;;4.70;70.33
20612;BME280;10465;42.686;23.364;2023-02-03T01:19:00;95256.16;;;5.13;70.81
20612;BME280;10465;42.686;23.364;2023-02-03T01:21:26;95240.94;;;5.10;70.97
20612;BME280;10465;42.686;23.364;2023-02-03T01:23:52;95238.56;;;5.04;71.28
20612;BME280;10465;42.686;23.364;2023-02-03T01:26:19;95235.16;;;5.03;71.59
20612;BME280;10465;42.686;23.364;2023-02-03T01:28:53;95198.91;;;4.80;71.22
20612;BME280;10465;42.686;23.364;2023-02-03T01:31:22;95218.84;;;4.86;70.92
20612;BME280;10465;42.686;23.364;2023-02-03T01:33:50;95201.28;;;4.81;70.12
20612;BME280;10465;42.686;23.364;2023-02-03T01:36:17;95220.19;;;4.93;70.11
20612;BME280;10465;42.686;23.364;2023-02-03T01:38:43;95237.25;;;5.01;69.76
20612;BME280;10465;42.686;23.364;2023-02-03T01:41:13;95243.56;;;5.00;68.94
20612;BME280;10465;42.686;23.364;2023-02-03T01:43:43;95248.53;;;5.02;69.02
20612;BME280;10465;42.686;23.364;2023-02-03T01:48:54;95241.16;;;4.83;69.20
20612;BME280;10465;42.686;23.364;2023-02-03T01:51:21;95229.84;;;4.78;68.74
20612;BME280;10465;42.686;23.364;2023-02-03T01:53:47;95215.16;;;4.66;68.64
20612;BME280;10465;42.686;23.364;2023-02-03T01:56:14;95261.13;;;4.94;69.06
20612;BME280;10465;42.686;23.364;2023-02-03T01:58:41;95240.88;;;4.80;69.03
20612;BME280;10465;42.686;23.364;2023-02-03T02:01:07;95257.94;;;4.82;68.48
20612;BME280;10465;42.686;23.364;2023-02-03T02:03:43;95202.78;;;4.46;68.15
20612;BME280;10465;42.686;23.364;2023-02-03T02:06:12;95245.84;;;4.76;68.27
20612;BME280;10465;42.686;23.364;2023-02-03T02:08:39;95254.28;;;4.93;67.84
20612;BME280;10465;42.686;23.364;2023-02-03T02:11:07;95181.25;;;4.39;67.83
20612;BME280;10465;42.686;23.364;2023-02-03T02:13:34;95254.53;;;4.87;67.83
20612;BME280;10465;42.686;23.364;2023-02-03T02:16:40;95240.88;;;4.80;67.44
20612;BME280;10465;42.686;23.364;2023-02-03T02:22:10;95261.88;;;4.90;67.63
20612;BME280;10465;42.686;23.364;2023-02-03T02:27:55;95255.34;;;4.87;67.38
20612;BME280;10465;42.686;23.364;2023-02-03T02:39:09;95284.91;;;4.72;67.97
20612;BME280;10465;42.686;23.364;2023-02-03T02:41:43;95252.88;;;4.50;67.40
20612;BME280;10465;42.686;23.364;2023-02-03T02:44:37;95284.94;;;4.78;67.77
20612;BME280;10465;42.686;23.364;2023-02-03T02:47:17;95205.06;;;4.33;67.32
20612;BME280;10465;42.686;23.364;2023-02-03T02:52:22;95266.22;;;4.54;67.46
20612;BME280;10465;42.686;23.364;2023-02-03T02:54:52;95258.66;;;4.62;67.33
20612;BME280;10465;42.686;23.364;2023-02-03T02:57:20;95276.00;;;4.74;67.44
20612;BME280;10465;42.686;23.364;2023-02-03T02:59:48;95271.00;;;4.72;67.10
20612;BME280;10465;42.686;23.364;2023-02-03T03:02:14;95270.75;;;4.68;67.39
20612;BME280;10465;42.686;23.364;2023-02-03T03:04:40;95277.31;;;4.66;67.52
20612;BME280;10465;42.686;23.364;2023-02-03T03:07:13;95263.59;;;4.54;67.31
20612;BME280;10465;42.686;23.364;2023-02-03T03:09:44;95297.22;;;4.67;67.00
20612;BME280;10465;42.686;23.364;2023-02-03T03:12:34;95226.97;;;4.06;66.23
20612;BME280;10465;42.686;23.364;2023-02-03T03:15:14;95279.28;;;4.38;66.21
20612;BME280;10465;42.686;23.364;2023-02-03T03:17:44;95274.06;;;4.43;66.04
20612;BME280;10465;42.686;23.364;2023-02-03T03:20:16;95279.81;;;4.40;65.88
20612;BME280;10465;42.686;23.364;2023-02-03T03:22:52;95257.66;;;4.16;65.89
20612;BME280;10465;42.686;23.364;2023-02-03T03:25:45;95291.91;;;4.52;65.85
20612;BME280;10465;42.686;23.364;2023-02-03T03:28:20;95286.31;;;4.33;65.35
20612;BME280;10465;42.686;23.364;2023-02-03T03:30:49;95299.75;;;4.46;65.21
20612;BME280;10465;42.686;23.364;2023-02-03T03:33:14;95287.09;;;4.33;65.36
20612;BME280;10465;42.686;23.364;2023-02-03T03:35:49;95300.56;;;4.47;65.07
20612;BME280;10465;42.686;23.364;2023-02-03T03:38:41;95310.00;;;4.48;64.59
20612;BME280;10465;42.686;23.364;2023-02-03T03:41:13;95298.41;;;4.39;63.69
20612;BME280;10465;42.686;23.364;2023-02-03T03:43:42;95292.91;;;4.35;64.23
20612;BME280;10465;42.686;23.364;2023-02-03T03:46:15;95317.81;;;4.38;64.09
20612;BME280;10465;42.686;23.364;2023-02-03T03:48:53;95305.72;;;4.37;63.82
20612;BME280;10465;42.686;23.364;2023-02-03T03:51:40;95311.84;;;4.53;63.81
20612;BME280;10465;42.686;23.364;2023-02-03T03:54:11;95286.56;;;4.31;64.13
20612;BME280;10465;42.686;23.364;2023-02-03T03:56:44;95308.88;;;4.34;64.04
20612;BME280;10465;42.686;23.364;2023-02-03T03:59:12;95305.44;;;4.33;63.70
20612;BME280;10465;42.686;23.364;2023-02-03T04:01:39;95308.59;;;4.30;64.51
20612;BME280;10465;42.686;23.364;2023-02-03T04:04:08;95298.06;;;4.25;64.57
20612;BME280;10465;42.686;23.364;2023-02-03T04:06:37;95322.56;;;4.46;63.98
20612;BME280;10465;42.686;23.364;2023-02-03T04:09:03;95325.13;;;4.36;64.22
20612;BME280;10465;42.686;23.364;2023-02-03T04:11:29;95303.00;;;4.16;64.81
20612;BME280;10465;42.686;23.364;2023-02-03T04:14:13;95333.25;;;4.34;65.17
20612;BME280;10465;42.686;23.364;2023-02-03T04:16:39;95337.16;;;4.32;65.28
20612;BME280;10465;42.686;23.364;2023-02-03T04:19:04;95356.88;;;4.39;65.31
20612;BME280;10465;42.686;23.364;2023-02-03T04:21:30;95355.28;;;4.38;65.48
20612;BME280;10465;42.686;23.364;2023-02-03T04:23:55;95342.59;;;4.20;65.32
20612;BME280;10465;42.686;23.364;2023-02-03T04:26:21;95326.53;;;4.06;65.97
20612;BME280;10465;42.686;23.364;2023-02-03T04:28:47;95364.94;;;4.33;66.29
20612;BME280;10465;42.686;23.364;2023-02-03T04:31:12;95352.03;;;4.21;65.92
20612;BME280;10465;42.686;23.364;2023-02-03T04:33:38;95369.09;;;4.29;66.26
20612;BME280;10465;42.686;23.364;2023-02-03T04:36:03;95377.56;;;4.36;65.79
20612;BME280;10465;42.686;23.364;2023-02-03T04:38:29;95372.31;;;4.36;65.27
20612;BME280;10465;42.686;23.364;2023-02-03T04:40:54;95320.22;;;4.02;65.48
20612;BME280;10465;42.686;23.364;2023-02-03T04:43:19;95379.41;;;4.40;65.86
20612;BME280;10465;42.686;23.364;2023-02-03T04:45:45;95392.78;;;4.39;65.74
20612;BME280;10465;42.686;23.364;2023-02-03T04:48:10;95384.03;;;4.28;65.67
20612;BME280;10465;42.686;23.364;2023-02-03T04:50:35;95354.63;;;4.16;65.38
20612;BME280;10465;42.686;23.364;2023-02-03T04:53:01;95381.44;;;4.28;65.54
20612;BME280;10465;42.686;23.364;2023-02-03T04:55:27;95394.56;;;4.33;65.71
20612;BME280;10465;42.686;23.364;2023-02-03T04:57:57;95384.63;;;4.35;65.40
20612;BME280;10465;42.686;23.364;2023-02-03T05:00:24;95382.50;;;4.32;65.20
20612;BME280;10465;42.686;23.364;2023-02-03T05:02:49;95366.97;;;4.20;65.54
20612;BME280;10465;42.686;23.364;2023-02-03T05:05:15;95392.78;;;4.39;65.93
20612;BME280;10465;42.686;23.364;2023-02-03T05:07:40;95397.72;;;4.30;65.28
20612;BME280;10465;42.686;23.364;2023-02-03T05:10:06;95391.09;;;4.22;65.42
20612;BME280;10465;42.686;23.364;2023-02-03T05:12:31;95403.19;;;4.29;65.87
20612;BME280;10465;42.686;23.364;2023-02-03T05:14:57;95413.19;;;4.37;65.17
20612;BME280;10465;42.686;23.364;2023-02-03T05:17:23;95410.38;;;4.43;65.64
20612;BME280;10465;42.686;23.364;2023-02-03T05:19:48;95411.91;;;4.39;65.25
20612;BME280;10465;42.686;23.364;2023-02-03T05:22:14;95428.69;;;4.38;65.20
20612;BME280;10465;42.686;23.364;2023-02-03T05:24:39;95415.66;;;4.16;65.67
20612;BME280;10465;42.686;23.364;2023-02-03T05:27:05;95406.53;;;4.19;65.46
20612;BME280;10465;42.686;23.364;2023-02-03T05:29:30;95415.22;;;4.25;65.24
20612;BME280;10465;42.686;23.364;2023-02-03T05:31:55;95408.84;;;4.15;65.79
20612;BME280;10465;42.686;23.364;2023-02-03T05:34:21;95418.91;;;4.29;65.39
20612;BME280;10465;42.686;23.364;2023-02-03T05:36:46;95403.94;;;4.24;65.54
20612;BME280;10465;42.686;23.364;2023-02-03T05:39:12;95390.31;;;4.22;64.97
20612;BME280;10465;42.686;23.364;2023-02-03T05:41:37;95383.09;;;4.02;65.27
20612;BME280;10465;42.686;23.364;2023-02-03T05:44:22;95428.06;;;4.26;65.78
20612;BME280;10465;42.686;23.364;2023-02-03T05:46:49;95417.78;;;4.19;65.66
20612;BME280;10465;42.686;23.364;2023-02-03T05:49:16;95431.19;;;4.23;65.65
20612;BME280;10465;42.686;23.364;2023-02-03T05:51:42;95411.97;;;4.12;65.78
20612;BME280;10465;42.686;23.364;2023-02-03T05:54:08;95431.47;;;4.27;65.35
20612;BME280;10465;42.686;23.364;2023-02-03T05:56:34;95446.47;;;4.31;65.58
20612;BME280;10465;42.686;23.364;2023-02-03T05:58:59;95443.03;;;4.26;65.01
20612;BME280;10465;42.686;23.364;2023-02-03T06:01:25;95441.72;;;4.28;65.00
20612;BME280;10465;42.686;23.364;2023-02-03T06:03:50;95417.75;;;4.14;65.31
20612;BME280;10465;42.686;23.364;2023-02-03T06:06:16;95451.41;;;4.28;65.27
20612;BME280;10465;42.686;23.364;2023-02-03T06:08:42;95448.88;;;4.38;64.93
20612;BME280;10465;42.686;23.364;2023-02-03T06:11:08;95380.38;;;3.92;65.11
20612;BME280;10465;42.686;23.364;2023-02-03T06:13:34;95425.41;;;4.21;64.84
20612;BME280;10465;42.686;23.364;2023-02-03T06:15:59;95431.38;;;4.16;65.15
20612;BME280;10465;42.686;23.364;2023-02-03T06:18:25;95448.88;;;4.38;64.52
20612;BME280;10465;42.686;23.364;2023-02-03T06:20:50;95429.50;;;4.07;65.33
20612;BME280;10465;42.686;23.364;2023-02-03T06:23:16;95444.09;;;4.30;64.35
20612;BME280;10465;42.686;23.364;2023-02-03T06:25:43;95464.06;;;4.41;63.94
20612;BME280;10465;42.686;23.364;2023-02-03T06:28:09;95445.41;;;4.32;64.02
20612;BME280;10465;42.686;23.364;2023-02-03T06:30:34;95446.78;;;4.40;63.41
20612;BME280;10465;42.686;23.364;2023-02-03T06:33:00;95447.59;;;4.45;63.32
20612;BME280;10465;42.686;23.364;2023-02-03T06:35:25;95475.75;;;4.60;62.73
20612;BME280;10465;42.686;23.364;2023-02-03T06:37:51;95452.63;;;4.52;62.64
20612;BME280;10465;42.686;23.364;2023-02-03T06:40:17;95472.94;;;4.67;62.35
20612;BME280;10465;42.686;23.364;2023-02-03T06:42:46;95498.44;;;4.82;62.17
20612;BME280;10465;42.686;23.364;2023-02-03T06:45:12;95499.59;;;4.96;61.86
20612;BME280;10465;42.686;23.364;2023-02-03T06:47:41;95479.09;;;4.88;61.06
20612;BME280;10465;42.686;23.364;2023-02-03T06:50:09;95475.91;;;4.86;60.70
20612;BME280;10465;42.686;23.364;2023-02-03T06:52:35;95486.00;;;5.04;60.33
20612;BME280;10465;42.686;23.364;2023-02-03T06:55:01;95514.47;;;5.23;59.78
20612;BME280;10465;42.686;23.364;2023-02-03T06:57:26;95491.06;;;5.16;59.06
20612;BME280;10465;42.686;23.364;2023-02-03T06:59:52;95469.03;;;5.22;58.74
20612;BME280;10465;42.686;23.364;2023-02-03T07:02:17;95499.88;;;5.52;58.16
20612;BME280;10465;42.686;23.364;2023-02-03T07:04:43;95492.00;;;5.52;57.68
20612;BME280;10465;42.686;23.364;2023-02-03T07:07:10;95499.41;;;5.60;57.39
20612;BME280;10465;42.686;23.364;2023-02-03T07:09:37;95461.56;;;5.51;63.33
20612;BME280;10465;42.686;23.364;2023-02-03T07:12:02;95467.47;;;5.99;65.53
20612;BME280;10465;42.686;23.364;2023-02-03T07:14:28;95411.66;;;5.66;56.89
20612;BME280;10465;42.686;23.364;2023-02-03T07:16:55;95486.84;;;5.78;56.43
20612;BME280;10465;42.686;23.364;2023-02-03T07:19:20;95486.06;;;5.82;57.05
20612;BME280;10465;42.686;23.364;2023-02-03T07:21:46;95441.34;;;5.67;56.55
20612;BME280;10465;42.686;23.364;2023-02-03T07:24:11;95478.50;;;6.01;56.51
20612;BME280;10465;42.686;23.364;2023-02-03T07:26:37;95466.06;;;5.71;56.34
20612;BME280;10465;42.686;23.364;2023-02-03T07:29:03;95486.03;;;5.72;56.76
20612;BME280;10465;42.686;23.364;2023-02-03T07:31:29;95479.16;;;5.56;56.84
20612;BME280;10465;42.686;23.364;2023-02-03T07:33:55;95470.19;;;5.46;56.67
20612;BME280;10465;42.686;23.364;2023-02-03T07:36:21;95476.84;;;5.69;55.85
20612;BME280;10465;42.686;23.364;2023-02-03T07:38:48;95472.63;;;5.74;56.13
20612;BME280;10465;42.686;23.364;2023-02-03T07:41:13;95474.25;;;5.85;55.55
20612;BME280;10465;42.686;23.364;2023-02-03T07:43:39;95428.47;;;5.60;54.79
20612;BME280;10465;42.686;23.364;2023-02-03T07:46:04;95483.53;;;6.18;54.64
20612;BME280;10465;42.686;23.364;2023-02-03T07:48:30;95470.13;;;6.25;53.51
20612;BME280;10465;42.686;23.364;2023-02-03T07:50:56;95489.88;;;6.32;53.65
20612;BME280;10465;42.686;23.364;2023-02-03T07:53:21;95512.72;;;6.27;53.31
20612;BME280;10465;42.686;23.364;2023-02-03T07:55:47;95498.50;;;6.23;53.35
20612;BME280;10465;42.686;23.364;2023-02-03T07:58:12;95488.00;;;6.12;53.29
20612;BME280;10465;42.686;23.364;2023-02-03T08:00:39;95483.00;;;6.47;52.43
20612;BME280;10465;42.686;23.364;2023-02-03T08:03:04;95514.06;;;6.70;51.49
20612;BME280;10465;42.686;23.364;2023-02-03T08:05:30;95512.22;;;6.60;51.40
20612;BME280;10465;42.686;23.364;2023-02-03T08:07:56;95475.63;;;6.23;51.03
20612;BME280;10465;42.686;23.364;2023-02-03T08:10:21;95505.38;;;6.49;52.11
20612;BME280;10465;42.686;23.364;2023-02-03T08:12:47;95528.53;;;6.83;51.40
20612;BME280;10465;42.686;23.364;2023-02-03T08:15:13;95521.66;;;7.07;50.72
20612;BME280;10465;42.686;23.364;2023-02-03T08:17:39;95488.28;;;6.67;51.11
20612;BME280;10465;42.686;23.364;2023-02-03T08:20:07;95506.66;;;6.98;50.27
20612;BME280;10465;42.686;23.364;2023-02-03T08:22:32;95534.81;;;7.17;49.91
20612;BME280;10465;42.686;23.364;2023-02-03T08:24:58;95512.38;;;7.30;49.54
20612;BME280;10465;42.686;23.364;2023-02-03T08:27:23;95531.22;;;7.68;48.80
20612;BME280;10465;42.686;23.364;2023-02-03T08:29:49;95509.56;;;7.81;48.55
20612;BME280;10465;42.686;23.364;2023-02-03T08:32:21;95527.56;;;8.13;47.24
20612;BME280;10465;42.686;23.364;2023-02-03T08:34:48;95526.03;;;8.07;46.20
20612;BME280;10465;42.686;23.364;2023-02-03T08:37:15;95521.56;;;8.08;46.59
20612;BME280;10465;42.686;23.364;2023-02-03T08:39:41;95512.44;;;8.29;46.27
20612;BME280;10465;42.686;23.364;2023-02-03T08:42:07;95504.06;;;8.61;45.18
20612;BME280;10465;42.686;23.364;2023-02-03T08:44:33;95524.47;;;8.85;44.40
20612;BME280;10465;42.686;23.364;2023-02-03T08:46:59;95554.13;;;9.06;43.24
20612;BME280;10465;42.686;23.364;2023-02-03T08:49:26;95554.72;;;8.98;43.61
20612;BME280;10465;42.686;23.364;2023-02-03T08:51:52;95543.84;;;9.04;42.05
20612;BME280;10465;42.686;23.364;2023-02-03T08:54:18;95555.44;;;9.08;41.97
20612;BME280;10465;42.686;23.364;2023-02-03T08:56:44;95556.59;;;9.26;42.22
20612;BME280;10465;42.686;23.364;2023-02-03T08:59:10;95573.75;;;9.29;41.34
20612;BME280;10465;42.686;23.364;2023-02-03T09:01:36;95565.25;;;9.32;41.77
20612;BME280;10465;42.686;23.364;2023-02-03T09:04:02;95559.47;;;9.54;40.68
20612;BME280;10465;42.686;23.364;2023-02-03T09:06:29;95533.28;;;9.57;40.91
20612;BME280;10465;42.686;23.364;2023-02-03T09:08:55;95531.47;;;9.53;40.49
20612;BME280;10465;42.686;23.364;2023-02-03T09:11:20;95530.31;;;9.40;41.34
20612;BME280;10465;42.686;23.364;2023-02-03T09:13:46;95542.38;;;8.93;42.70
20612;BME280;10465;42.686;23.364;2023-02-03T09:16:14;95544.28;;;9.16;43.65
20612;BME280;10465;42.686;23.364;2023-02-03T09:18:43;95554.47;;;9.76;41.98
20612;BME280;10465;42.686;23.364;2023-02-03T09:21:10;95543.66;;;10.15;41.13
20612;BME280;10465;42.686;23.364;2023-02-03T09:23:37;95528.69;;;10.30;40.13
20612;BME280;10465;42.686;23.364;2023-02-03T09:26:06;95521.22;;;9.70;40.58
20612;BME280;10465;42.686;23.364;2023-02-03T09:28:33;95531.28;;;9.20;41.50
20612;BME280;10465;42.686;23.364;2023-02-03T09:31:07;95549.09;;;9.09;42.49
20612;BME280;10465;42.686;23.364;2023-02-03T09:33:33;95553.03;;;9.12;43.57
20612;BME280;10465;42.686;23.364;2023-02-03T09:35:59;95551.19;;;9.07;42.46
20612;BME280;10465;42.686;23.364;2023-02-03T09:38:26;95530.81;;;8.84;42.82
20612;BME280;10465;42.686;23.364;2023-02-03T09:46:02;95548.22;;;8.85;43.25
20612;BME280;10465;42.686;23.364;2023-02-03T09:48:35;95533.47;;;8.84;44.10
20612;BME280;10465;42.686;23.364;2023-02-03T09:51:02;95538.16;;;8.87;44.03
20612;BME280;10465;42.686;23.364;2023-02-03T09:53:37;95514.44;;;8.53;43.83
20612;BME280;10465;42.686;23.364;2023-02-03T09:56:21;95546.53;;;9.28;41.79
20612;BME280;10465;42.686;23.364;2023-02-03T09:58:47;95538.78;;;9.85;40.48
20612;BME280;10465;42.686;23.364;2023-02-03T10:01:14;95522.28;;;9.93;39.65
20612;BME280;10465;42.686;23.364;2023-02-03T10:03:50;95505.56;;;9.98;40.02
20612;BME280;10465;42.686;23.364;2023-02-03T10:06:37;95521.03;;;10.28;39.13
20612;BME280;10465;42.686;23.364;2023-02-03T10:09:28;95514.28;;;9.98;38.92
20612;BME280;10465;42.686;23.364;2023-02-03T10:17:39;95531.41;;;10.25;37.49
20612;BME280;10465;42.686;23.364;2023-02-03T10:20:18;95526.09;;;10.62;36.08
20612;BME280;10465;42.686;23.364;2023-02-03T10:23:00;95509.41;;;10.29;36.48
20612;BME280;10465;42.686;23.364;2023-02-03T10:25:33;95518.44;;;10.23;37.06
20612;BME280;10465;42.686;23.364;2023-02-03T10:28:29;95528.28;;;9.99;37.28
20612;BME280;10465;42.686;23.364;2023-02-03T10:31:02;95511.94;;;9.97;37.83
20612;BME280;10465;42.686;23.364;2023-02-03T10:33:32;95510.41;;;9.90;37.87
20612;BME280;10465;42.686;23.364;2023-02-03T10:36:18;95515.06;;;9.99;36.80
20612;BME280;10465;42.686;23.364;2023-02-03T10:38:57;95515.28;;;10.02;37.08
20612;BME280;10465;42.686;23.364;2023-02-03T10:41:26;95508.69;;;10.00;35.69
20612;BME280;10465;42.686;23.364;2023-02-03T10:43:54;95484.41;;;9.98;35.71
20612;BME280;10465;42.686;23.364;2023-02-03T10:46:26;95513.28;;;10.13;36.09
20612;BME280;10465;42.686;23.364;2023-02-03T10:48:52;95491.91;;;10.09;35.49
20612;BME280;10465;42.686;23.364;2023-02-03T10:51:25;95516.41;;;9.77;37.76
20612;BME280;10465;42.686;23.364;2023-02-03T10:53:51;95524.78;;;9.36;37.26
20612;BME280;10465;42.686;23.364;2023-02-03T10:56:38;95488.94;;;8.72;38.00
20612;BME280;10465;42.686;23.364;2023-02-03T10:59:05;95513.06;;;8.60;38.58
20612;BME280;10465;42.686;23.364;2023-02-03T11:01:41;95524.88;;;8.68;38.04
20612;BME280;10465;42.686;23.364;2023-02-03T11:07:03;95517.94;;;8.77;37.07
20612;BME280;10465;42.686;23.364;2023-02-03T11:09:37;95507.13;;;9.03;36.40
20612;BME280;10465;42.686;23.364;2023-02-03T11:12:19;95484.50;;;8.68;36.94
20612;BME280;10465;42.686;23.364;2023-02-03T11:14:47;95508.38;;;8.52;37.46
20612;BME280;10465;42.686;23.364;2023-02-03T11:17:24;95504.47;;;8.45;38.10
20612;BME280;10465;42.686;23.364;2023-02-03T11:20:01;95459.53;;;8.15;38.53
20612;BME280;10465;42.686;23.364;2023-02-03T11:22:31;95464.84;;;8.10;38.04
20612;BME280;10465;42.686;23.364;2023-02-03T11:25:01;95493.28;;;8.18;38.26
20612;BME280;10465;42.686;23.364;2023-02-03T11:27:29;95481.00;;;7.93;36.90
20612;BME280;10465;42.686;23.364;2023-02-03T11:30:28;95441.09;;;7.71;36.74
20612;BME280;10465;42.686;23.364;2023-02-03T11:32:54;95478.38;;;7.93;37.19
20612;BME280;10465;42.686;23.364;2023-02-03T11:35:25;95461.16;;;8.51;37.12
20612;BME280;10465;42.686;23.364;2023-02-03T11:37:53;95460.84;;;9.34;36.41
20612;BME280;10465;42.686;23.364;2023-02-03T11:45:36;95472.09;;;8.68;37.57
20612;BME280;10465;42.686;23.364;2023-02-03T11:50:46;95469.22;;;7.86;39.41
20612;BME280;10465;42.686;23.364;2023-02-03T11:53:49;95465.09;;;7.64;38.87
20612;BME280;10465;42.686;23.364;2023-02-03T11:56:33;95473.88;;;7.44;36.71
20612;BME280;10465;42.686;23.364;2023-02-03T12:16:13;95479.13;;;8.04;34.14
20612;BME280;10465;42.686;23.364;2023-02-03T12:18:33;95470.59;;;8.57;34.39
20612;BME280;10465;42.686;23.364;2023-02-03T12:27:12;95467.84;;;9.25;30.91
20612;BME280;10465;42.686;23.364;2023-02-03T12:29:41;95451.44;;;9.90;30.56
20612;BME280;10465;42.686;23.364;2023-02-03T12:32:33;95463.34;;;10.63;30.03
20612;BME280;10465;42.686;23.364;2023-02-03T12:40:34;95453.13;;;9.62;30.83
20612;BME280;10465;42.686;23.364;2023-02-03T12:45:57;95450.28;;;8.18;33.38
20612;BME280;10465;42.686;23.364;2023-02-03T12:48:39;95458.56;;;8.06;34.68
20612;BME280;10465;42.686;23.364;2023-02-03T12:51:11;95427.22;;;8.00;35.10
20612;BME280;10465;42.686;23.364;2023-02-03T12:53:44;95436.28;;;8.57;34.14
20612;BME280;10465;42.686;23.364;2023-02-03T12:56:23;95459.19;;;9.20;33.38
20612;BME280;10465;42.686;23.364;2023-02-03T12:58:59;95443.47;;;9.52;32.64
20612;BME280;10465;42.686;23.364;2023-02-03T13:01:40;95440.72;;;9.14;32.88
20612;BME280;10465;42.686;23.364;2023-02-03T13:04:53;95432.28;;;8.64;34.53
20612;BME280;10465;42.686;23.364;2023-02-03T13:07:34;95393.44;;;8.36;35.05
20612;BME280;10465;42.686;23.364;2023-02-03T13:10:21;95433.13;;;8.21;36.49
20612;BME280;10465;42.686;23.364;2023-02-03T13:12:55;95401.44;;;7.91;37.23
20612;BME280;10465;42.686;23.364;2023-02-03T13:15:26;95443.94;;;7.80;37.65
20612;BME280;10465;42.686;23.364;2023-02-03T13:18:26;95398.06;;;7.41;38.26
20612;BME280;10465;42.686;23.364;2023-02-03T13:20:54;95432.88;;;7.78;38.15
20612;BME280;10465;42.686;23.364;2023-02-03T13:23:21;95410.22;;;7.77;37.25
20612;BME280;10465;42.686;23.364;2023-02-03T13:33:54;95426.38;;;7.60;39.20
20612;BME280;10465;42.686;23.364;2023-02-03T13:42:39;95386.53;;;8.11;37.75
20612;BME280;10465;42.686;23.364;2023-02-03T13:47:44;95410.31;;;8.40;36.98
20612;BME280;10465;42.686;23.364;2023-02-03T13:50:26;95406.22;;;7.84;37.50
20612;BME280;10465;42.686;23.364;2023-02-03T13:53:27;95361.78;;;7.23;38.57
20612;BME280;10465;42.686;23.364;2023-02-03T13:56:14;95416.44;;;7.47;39.20
20612;BME280;10465;42.686;23.364;2023-02-03T13:58:42;95415.13;;;7.44;39.28
20612;BME280;10465;42.686;23.364;2023-02-03T14:01:38;95423.81;;;7.50;40.49
20612;BME280;10465;42.686;23.364;2023-02-03T14:04:51;95434.53;;;7.63;40.27
20612;BME280;10465;42.686;23.364;2023-02-03T14:11:45;95421.56;;;8.16;39.51
20612;BME280;10465;42.686;23.364;2023-02-03T14:16:44;95423.47;;;8.74;38.77
20612;BME280;10465;42.686;23.364;2023-02-03T14:24:29;95399.63;;;7.82;40.15
20612;BME280;10465;42.686;23.364;2023-02-03T14:26:57;95382.16;;;7.52;40.92
20612;BME280;10465;42.686;23.364;2023-02-03T14:29:29;95415.59;;;7.56;41.12
20612;BME280;10465;42.686;23.364;2023-02-03T14:32:02;95423.56;;;7.41;41.90
20612;BME280;10465;42.686;23.364;2023-02-03T14:34:40;95425.72;;;7.29;41.89
20612;BME280;10465;42.686;23.364;2023-02-03T14:37:51;95418.94;;;7.12;41.74
20612;BME280;10465;42.686;23.364;2023-02-03T14:49:02;95418.53;;;6.80;41.35
20612;BME280;10465;42.686;23.364;2023-02-03T14:57:40;95422.53;;;6.57;41.49
20612;BME280;10465;42.686;23.364;2023-02-03T15:03:19;95362.63;;;5.98;40.54
20612;BME280;10465;42.686;23.364;2023-02-03T15:05:49;95406.22;;;6.34;40.81
20612;BME280;10465;42.686;23.364;2023-02-03T15:11:23;95389.91;;;6.42;39.74
20612;BME280;10465;42.686;23.364;2023-02-03T15:13:50;95380.75;;;6.25;39.65
20612;BME280;10465;42.686;23.364;2023-02-03T15:16:19;95383.63;;;6.28;40.31
20612;BME280;10465;42.686;23.364;2023-02-03T15:18:55;95369.44;;;6.19;40.43